createdAt,value
2023-03-22T14:11:11.063Z,2.80
2023-03-22T14:59:12.843Z,6.80
2023-03-22T15:11:13.353Z,4.50
2023-03-22T15:23:13.792Z,3.00
2023-03-22T15:35:14.302Z,6.20
2023-03-22T15:47:14.687Z,5.50
2023-03-22T15:59:15.107Z,3.70
2023-03-22T16:11:15.572Z,5.50
2023-03-22T16:23:16.072Z,8.20
2023-03-22T16:35:16.511Z,7.10
2023-03-22T16:47:16.938Z,6.40
2023-03-22T16:59:17.393Z,4.70
2023-03-22T17:11:17.898Z,17.50
2023-03-22T17:23:18.347Z,8.80
2023-03-22T17:35:18.751Z,9.70
2023-03-22T17:47:37.494Z,18.80
2023-03-22T17:59:19.650Z,5.70
2023-03-22T18:11:20.114Z,9.90
2023-03-22T18:23:20.615Z,9.00
2023-03-22T18:35:21.031Z,12.00
2023-03-22T18:47:21.452Z,6.20
2023-03-22T18:59:21.992Z,6.50
2023-03-22T19:11:22.407Z,30.30
2023-03-22T19:23:22.826Z,46.90
2023-03-22T19:35:23.288Z,28.10
2023-03-22T19:47:23.784Z,16.60
2023-03-22T19:59:25.794Z,14.80
2023-03-22T20:11:38.066Z,18.50
2023-03-22T20:23:25.152Z,12.00
2023-03-22T20:35:25.574Z,15.60
2023-03-22T20:47:26.007Z,11.40
2023-03-22T20:59:26.610Z,16.40
2023-03-22T21:11:29.225Z,24.40
2023-03-22T21:23:27.380Z,59.10
2023-03-22T21:35:27.847Z,42.60
2023-03-22T21:47:28.281Z,29.60
2023-03-22T21:59:28.754Z,24.70
2023-03-22T22:11:29.216Z,19.50
2023-03-22T22:23:29.662Z,13.00
2023-03-22T22:35:30.161Z,15.70
2023-03-22T22:47:30.579Z,13.10
2023-03-22T22:59:31.028Z,14.30
2023-03-22T23:11:31.511Z,11.90
2023-03-22T23:23:31.900Z,11.60
2023-03-22T23:35:32.380Z,11.30
2023-03-22T23:47:32.808Z,10.70
2023-03-22T23:59:35.514Z,11.60
